sensor_id;sensor_type;location;lat;lon;timestamp;P1;durP1;ratioP1;P2;durP2;ratioP2
29168;SDS011;16219;42.864;23.360;2023-04-24T00:00:53;2.13;;;2.03;;
29168;SDS011;16219;42.864;23.360;2023-04-24T00:03:21;2.13;;;1.95;;
29168;SDS011;16219;42.864;23.360;2023-04-24T00:05:49;9.48;;;2.55;;
29168;SDS011;16219;42.864;23.360;2023-04-24T00:08:16;2.10;;;1.90;;
29168;SDS011;16219;42.864;23.360;2023-04-24T00:10:43;2.03;;;1.92;;
29168;SDS011;16219;42.864;23.360;2023-04-24T00:13:12;3.13;;;2.20;;
29168;SDS011;16219;42.864;23.360;2023-04-24T00:15:38;4.75;;;2.17;;
29168;SDS011;16219;42.864;23.360;2023-04-24T00:18:06;2.20;;;2.05;;
29168;SDS011;16219;42.864;23.360;2023-04-24T00:20:33;3.70;;;2.70;;
29168;SDS011;16219;42.864;23.360;2023-04-24T00:23:00;1.85;;;1.67;;
29168;SDS011;16219;42.864;23.360;2023-04-24T00:25:27;1.65;;;1.55;;
29168;SDS011;16219;42.864;23.360;2023-04-24T00:27:54;2.95;;;2.55;;
29168;SDS011;16219;42.864;23.360;2023-04-24T00:30:23;2.45;;;2.25;;
29168;SDS011;16219;42.864;23.360;2023-04-24T00:32:49;3.15;;;2.03;;
29168;SDS011;16219;42.864;23.360;2023-04-24T00:35:17;2.47;;;2.13;;
29168;SDS011;16219;42.864;23.360;2023-04-24T00:37:45;2.90;;;2.53;;
29168;SDS011;16219;42.864;23.360;2023-04-24T00:40:12;5.03;;;2.85;;
29168;SDS011;16219;42.864;23.360;2023-04-24T00:42:39;3.13;;;2.25;;
29168;SDS011;16219;42.864;23.360;2023-04-24T00:45:07;3.63;;;2.50;;
29168;SDS011;16219;42.864;23.360;2023-04-24T00:47:36;11.27;;;2.55;;
29168;SDS011;16219;42.864;23.360;2023-04-24T00:50:03;3.53;;;2.40;;
29168;SDS011;16219;42.864;23.360;2023-04-24T00:52:31;2.10;;;1.95;;
29168;SDS011;16219;42.864;23.360;2023-04-24T00:54:58;2.47;;;2.28;;
29168;SDS011;16219;42.864;23.360;2023-04-24T00:57:26;3.50;;;2.22;;
29168;SDS011;16219;42.864;23.360;2023-04-24T00:59:53;4.28;;;2.22;;
29168;SDS011;16219;42.864;23.360;2023-04-24T01:02:21;4.97;;;2.78;;
29168;SDS011;16219;42.864;23.360;2023-04-24T01:04:51;2.13;;;1.92;;
29168;SDS011;16219;42.864;23.360;2023-04-24T01:07:18;3.63;;;2.40;;
29168;SDS011;16219;42.864;23.360;2023-04-24T01:09:46;16.95;;;3.33;;
29168;SDS011;16219;42.864;23.360;2023-04-24T01:12:17;4.43;;;3.78;;
29168;SDS011;16219;42.864;23.360;2023-04-24T01:14:44;2.67;;;2.30;;
29168;SDS011;16219;42.864;23.360;2023-04-24T01:17:11;2.63;;;2.40;;
29168;SDS011;16219;42.864;23.360;2023-04-24T01:19:38;2.13;;;2.03;;
29168;SDS011;16219;42.864;23.360;2023-04-24T01:22:11;5.72;;;2.95;;
29168;SDS011;16219;42.864;23.360;2023-04-24T01:24:39;4.72;;;2.95;;
29168;SDS011;16219;42.864;23.360;2023-04-24T01:27:07;3.50;;;3.03;;
29168;SDS011;16219;42.864;23.360;2023-04-24T01:29:35;3.08;;;2.33;;
29168;SDS011;16219;42.864;23.360;2023-04-24T01:32:03;3.50;;;3.20;;
29168;SDS011;16219;42.864;23.360;2023-04-24T01:34:31;3.55;;;2.78;;
29168;SDS011;16219;42.864;23.360;2023-04-24T01:36:58;3.15;;;2.28;;
29168;SDS011;16219;42.864;23.360;2023-04-24T01:39:27;5.07;;;2.88;;
29168;SDS011;16219;42.864;23.360;2023-04-24T01:41:54;3.25;;;2.95;;
29168;SDS011;16219;42.864;23.360;2023-04-24T01:44:21;2.13;;;1.75;;
29168;SDS011;16219;42.864;23.360;2023-04-24T01:46:48;4.43;;;2.45;;
29168;SDS011;16219;42.864;23.360;2023-04-24T01:49:15;6.10;;;2.63;;
29168;SDS011;16219;42.864;23.360;2023-04-24T01:51:44;4.15;;;2.33;;
29168;SDS011;16219;42.864;23.360;2023-04-24T01:54:10;2.67;;;2.33;;
29168;SDS011;16219;42.864;23.360;2023-04-24T01:56:39;2.25;;;2.10;;
29168;SDS011;16219;42.864;23.360;2023-04-24T01:59:09;9.57;;;2.10;;
29168;SDS011;16219;42.864;23.360;2023-04-24T02:01:37;1.85;;;1.75;;
29168;SDS011;16219;42.864;23.360;2023-04-24T02:04:04;1.90;;;1.80;;
29168;SDS011;16219;42.864;23.360;2023-04-24T02:06:33;2.00;;;1.85;;
29168;SDS011;16219;42.864;23.360;2023-04-24T02:09:01;4.50;;;2.03;;
29168;SDS011;16219;42.864;23.360;2023-04-24T02:11:28;1.48;;;1.38;;
29168;SDS011;16219;42.864;23.360;2023-04-24T02:13:58;4.85;;;2.25;;
29168;SDS011;16219;42.864;23.360;2023-04-24T02:16:25;1.48;;;1.30;;
29168;SDS011;16219;42.864;23.360;2023-04-24T02:18:52;2.72;;;2.50;;
29168;SDS011;16219;42.864;23.360;2023-04-24T02:21:19;1.70;;;1.60;;
29168;SDS011;16219;42.864;23.360;2023-04-24T02:23:46;2.35;;;2.08;;
29168;SDS011;16219;42.864;23.360;2023-04-24T02:26:13;1.92;;;1.83;;
29168;SDS011;16219;42.864;23.360;2023-04-24T02:28:40;2.60;;;2.40;;
29168;SDS011;16219;42.864;23.360;2023-04-24T02:31:08;2.30;;;2.05;;
29168;SDS011;16219;42.864;23.360;2023-04-24T02:33:35;2.20;;;2.00;;
29168;SDS011;16219;42.864;23.360;2023-04-24T02:36:04;2.42;;;2.17;;
29168;SDS011;16219;42.864;23.360;2023-04-24T02:38:31;5.22;;;3.45;;
29168;SDS011;16219;42.864;23.360;2023-04-24T02:40:58;3.92;;;3.63;;
29168;SDS011;16219;42.864;23.360;2023-04-24T02:43:26;5.38;;;3.03;;
29168;SDS011;16219;42.864;23.360;2023-04-24T02:45:52;2.40;;;2.20;;
29168;SDS011;16219;42.864;23.360;2023-04-24T02:48:21;2.47;;;2.25;;
29168;SDS011;16219;42.864;23.360;2023-04-24T02:50:48;2.33;;;2.17;;
29168;SDS011;16219;42.864;23.360;2023-04-24T02:53:16;3.80;;;2.22;;
29168;SDS011;16219;42.864;23.360;2023-04-24T02:55:43;3.85;;;2.00;;
29168;SDS011;16219;42.864;23.360;2023-04-24T02:58:11;3.08;;;2.33;;
29168;SDS011;16219;42.864;23.360;2023-04-24T03:00:38;3.55;;;2.53;;
29168;SDS011;16219;42.864;23.360;2023-04-24T03:03:06;3.20;;;2.67;;
29168;SDS011;16219;42.864;23.360;2023-04-24T03:05:34;5.03;;;2.58;;
29168;SDS011;16219;42.864;23.360;2023-04-24T03:08:01;2.35;;;1.80;;
29168;SDS011;16219;42.864;23.360;2023-04-24T03:10:28;2.28;;;1.95;;
29168;SDS011;16219;42.864;23.360;2023-04-24T03:12:55;2.40;;;1.55;;
29168;SDS011;16219;42.864;23.360;2023-04-24T03:15:22;2.17;;;1.98;;
29168;SDS011;16219;42.864;23.360;2023-04-24T03:17:49;2.63;;;1.98;;
29168;SDS011;16219;42.864;23.360;2023-04-24T03:20:16;4.65;;;2.60;;
29168;SDS011;16219;42.864;23.360;2023-04-24T03:22:45;1.42;;;1.33;;
29168;SDS011;16219;42.864;23.360;2023-04-24T03:25:12;2.10;;;1.83;;
29168;SDS011;16219;42.864;23.360;2023-04-24T03:27:39;4.13;;;2.45;;
29168;SDS011;16219;42.864;23.360;2023-04-24T03:30:16;2.72;;;2.53;;
29168;SDS011;16219;42.864;23.360;2023-04-24T03:32:49;3.80;;;2.70;;
29168;SDS011;16219;42.864;23.360;2023-04-24T03:35:21;1.65;;;1.55;;
29168;SDS011;16219;42.864;23.360;2023-04-24T03:37:52;1.63;;;1.52;;
29168;SDS011;16219;42.864;23.360;2023-04-24T03:40:39;5.47;;;2.35;;
29168;SDS011;16219;42.864;23.360;2023-04-24T03:43:20;2.00;;;1.90;;
29168;SDS011;16219;42.864;23.360;2023-04-24T03:45:47;3.35;;;2.58;;
29168;SDS011;16219;42.864;23.360;2023-04-24T03:48:15;5.45;;;2.50;;
29168;SDS011;16219;42.864;23.360;2023-04-24T03:50:43;2.88;;;2.13;;
29168;SDS011;16219;42.864;23.360;2023-04-24T03:53:13;2.03;;;1.92;;
29168;SDS011;16219;42.864;23.360;2023-04-24T03:55:41;2.17;;;1.95;;
29168;SDS011;16219;42.864;23.360;2023-04-24T03:58:09;1.75;;;1.48;;
29168;SDS011;16219;42.864;23.360;2023-04-24T04:00:36;11.65;;;2.88;;
29168;SDS011;16219;42.864;23.360;2023-04-24T04:03:24;1.58;;;1.50;;
29168;SDS011;16219;42.864;23.360;2023-04-24T04:05:52;2.38;;;2.05;;
29168;SDS011;16219;42.864;23.360;2023-04-24T04:08:21;1.70;;;1.48;;
29168;SDS011;16219;42.864;23.360;2023-04-24T04:10:48;1.80;;;1.70;;
29168;SDS011;16219;42.864;23.360;2023-04-24T04:13:16;2.92;;;1.77;;
29168;SDS011;16219;42.864;23.360;2023-04-24T04:15:43;2.33;;;2.13;;
29168;SDS011;16219;42.864;23.360;2023-04-24T04:18:11;2.10;;;1.65;;
29168;SDS011;16219;42.864;23.360;2023-04-24T04:20:39;2.20;;;1.48;;
29168;SDS011;16219;42.864;23.360;2023-04-24T04:23:06;3.60;;;3.00;;
29168;SDS011;16219;42.864;23.360;2023-04-24T04:25:45;2.08;;;1.98;;
29168;SDS011;16219;42.864;23.360;2023-04-24T04:28:13;1.27;;;1.17;;
29168;SDS011;16219;42.864;23.360;2023-04-24T04:30:41;1.90;;;1.80;;
29168;SDS011;16219;42.864;23.360;2023-04-24T04:33:09;1.42;;;1.33;;
29168;SDS011;16219;42.864;23.360;2023-04-24T04:35:36;1.40;;;1.30;;
29168;SDS011;16219;42.864;23.360;2023-04-24T04:38:04;8.32;;;2.20;;
29168;SDS011;16219;42.864;23.360;2023-04-24T04:40:42;3.88;;;2.00;;
29168;SDS011;16219;42.864;23.360;2023-04-24T04:43:12;1.77;;;1.67;;
29168;SDS011;16219;42.864;23.360;2023-04-24T04:45:47;5.47;;;1.98;;
29168;SDS011;16219;42.864;23.360;2023-04-24T04:48:23;2.67;;;2.05;;
29168;SDS011;16219;42.864;23.360;2023-04-24T04:50:51;2.15;;;1.80;;
29168;SDS011;16219;42.864;23.360;2023-04-24T04:53:20;1.75;;;1.65;;
29168;SDS011;16219;42.864;23.360;2023-04-24T04:55:47;2.33;;;2.13;;
29168;SDS011;16219;42.864;23.360;2023-04-24T04:58:17;2.25;;;1.80;;
29168;SDS011;16219;42.864;23.360;2023-04-24T05:00:45;2.25;;;2.08;;
29168;SDS011;16219;42.864;23.360;2023-04-24T05:03:22;3.50;;;2.20;;
29168;SDS011;16219;42.864;23.360;2023-04-24T05:05:58;3.55;;;1.60;;
29168;SDS011;16219;42.864;23.360;2023-04-24T05:08:27;6.57;;;3.00;;
29168;SDS011;16219;42.864;23.360;2023-04-24T05:10:55;4.60;;;2.50;;
29168;SDS011;16219;42.864;23.360;2023-04-24T05:13:24;3.97;;;2.42;;
29168;SDS011;16219;42.864;23.360;2023-04-24T05:15:51;3.60;;;1.90;;
29168;SDS011;16219;42.864;23.360;2023-04-24T05:18:19;7.97;;;2.58;;
29168;SDS011;16219;42.864;23.360;2023-04-24T05:20:46;1.90;;;1.80;;
29168;SDS011;16219;42.864;23.360;2023-04-24T05:23:14;3.03;;;2.00;;
29168;SDS011;16219;42.864;23.360;2023-04-24T05:25:43;4.88;;;2.50;;
29168;SDS011;16219;42.864;23.360;2023-04-24T05:28:11;1.33;;;1.23;;
29168;SDS011;16219;42.864;23.360;2023-04-24T05:30:40;1.83;;;1.65;;
29168;SDS011;16219;42.864;23.360;2023-04-24T05:33:07;2.05;;;1.75;;
29168;SDS011;16219;42.864;23.360;2023-04-24T05:35:35;1.63;;;1.42;;
29168;SDS011;16219;42.864;23.360;2023-04-24T05:38:02;7.85;;;5.30;;
29168;SDS011;16219;42.864;23.360;2023-04-24T05:40:29;5.07;;;2.40;;
29168;SDS011;16219;42.864;23.360;2023-04-24T05:42:56;1.52;;;1.42;;
29168;SDS011;16219;42.864;23.360;2023-04-24T05:45:23;2.33;;;1.85;;
29168;SDS011;16219;42.864;23.360;2023-04-24T05:47:52;1.52;;;1.15;;
29168;SDS011;16219;42.864;23.360;2023-04-24T05:50:19;2.17;;;1.98;;
29168;SDS011;16219;42.864;23.360;2023-04-24T05:52:46;1.50;;;1.40;;
29168;SDS011;16219;42.864;23.360;2023-04-24T05:55:23;1.35;;;1.13;;
29168;SDS011;16219;42.864;23.360;2023-04-24T05:57:51;2.38;;;1.48;;
29168;SDS011;16219;42.864;23.360;2023-04-24T06:00:19;2.03;;;1.83;;
29168;SDS011;16219;42.864;23.360;2023-04-24T06:02:59;1.90;;;1.67;;
29168;SDS011;16219;42.864;23.360;2023-04-24T06:05:29;1.00;;;0.98;;
29168;SDS011;16219;42.864;23.360;2023-04-24T06:07:56;1.42;;;1.33;;
29168;SDS011;16219;42.864;23.360;2023-04-24T06:10:28;1.63;;;1.52;;
29168;SDS011;16219;42.864;23.360;2023-04-24T06:12:57;2.15;;;2.00;;
29168;SDS011;16219;42.864;23.360;2023-04-24T06:15:27;1.90;;;1.73;;
29168;SDS011;16219;42.864;23.360;2023-04-24T06:18:00;2.70;;;1.10;;
29168;SDS011;16219;42.864;23.360;2023-04-24T06:20:28;0.90;;;0.90;;
29168;SDS011;16219;42.864;23.360;2023-04-24T06:22:55;1.05;;;1.05;;
29168;SDS011;16219;42.864;23.360;2023-04-24T06:25:24;0.80;;;0.80;;
29168;SDS011;16219;42.864;23.360;2023-04-24T06:27:51;1.60;;;1.50;;
29168;SDS011;16219;42.864;23.360;2023-04-24T06:30:18;1.52;;;1.42;;
29168;SDS011;16219;42.864;23.360;2023-04-24T06:32:45;2.38;;;1.83;;
29168;SDS011;16219;42.864;23.360;2023-04-24T06:35:16;4.97;;;1.42;;
29168;SDS011;16219;42.864;23.360;2023-04-24T06:37:43;2.17;;;1.48;;
29168;SDS011;16219;42.864;23.360;2023-04-24T06:40:11;1.38;;;1.27;;
29168;SDS011;16219;42.864;23.360;2023-04-24T06:42:38;0.70;;;0.70;;
29168;SDS011;16219;42.864;23.360;2023-04-24T06:45:07;1.67;;;1.38;;
29168;SDS011;16219;42.864;23.360;2023-04-24T06:47:35;1.60;;;1.45;;
29168;SDS011;16219;42.864;23.360;2023-04-24T06:50:03;2.40;;;1.48;;
29168;SDS011;16219;42.864;23.360;2023-04-24T06:52:32;7.18;;;1.35;;
29168;SDS011;16219;42.864;23.360;2023-04-24T06:55:02;0.95;;;0.95;;
29168;SDS011;16219;42.864;23.360;2023-04-24T06:57:30;1.13;;;1.13;;
29168;SDS011;16219;42.864;23.360;2023-04-24T06:59:57;1.17;;;1.13;;
29168;SDS011;16219;42.864;23.360;2023-04-24T07:02:24;1.48;;;1.35;;
29168;SDS011;16219;42.864;23.360;2023-04-24T07:04:51;1.05;;;1.05;;
29168;SDS011;16219;42.864;23.360;2023-04-24T07:07:19;1.10;;;1.08;;
29168;SDS011;16219;42.864;23.360;2023-04-24T07:09:47;1.10;;;1.05;;
29168;SDS011;16219;42.864;23.360;2023-04-24T07:12:16;0.95;;;0.95;;
29168;SDS011;16219;42.864;23.360;2023-04-24T07:14:45;1.58;;;1.15;;
29168;SDS011;16219;42.864;23.360;2023-04-24T07:17:12;2.50;;;1.23;;
29168;SDS011;16219;42.864;23.360;2023-04-24T07:19:40;1.60;;;1.50;;
29168;SDS011;16219;42.864;23.360;2023-04-24T07:22:07;0.88;;;0.88;;
29168;SDS011;16219;42.864;23.360;2023-04-24T07:24:36;9.38;;;1.60;;
29168;SDS011;16219;42.864;23.360;2023-04-24T07:27:05;1.02;;;0.98;;
29168;SDS011;16219;42.864;23.360;2023-04-24T07:29:32;0.82;;;0.82;;
29168;SDS011;16219;42.864;23.360;2023-04-24T07:31:59;2.13;;;1.92;;
29168;SDS011;16219;42.864;23.360;2023-04-24T07:34:26;0.80;;;0.80;;
29168;SDS011;16219;42.864;23.360;2023-04-24T07:36:53;1.15;;;0.85;;
29168;SDS011;16219;42.864;23.360;2023-04-24T07:39:21;0.82;;;0.77;;
29168;SDS011;16219;42.864;23.360;2023-04-24T07:41:48;1.10;;;0.93;;
29168;SDS011;16219;42.864;23.360;2023-04-24T07:44:17;2.83;;;1.95;;
29168;SDS011;16219;42.864;23.360;2023-04-24T07:46:44;1.08;;;1.05;;
29168;SDS011;16219;42.864;23.360;2023-04-24T07:49:11;0.40;;;0.40;;
29168;SDS011;16219;42.864;23.360;2023-04-24T07:51:38;0.60;;;0.60;;
29168;SDS011;16219;42.864;23.360;2023-04-24T07:54:05;1.65;;;1.08;;
29168;SDS011;16219;42.864;23.360;2023-04-24T07:56:32;1.15;;;1.05;;
29168;SDS011;16219;42.864;23.360;2023-04-24T07:59:04;1.67;;;1.15;;
29168;SDS011;16219;42.864;23.360;2023-04-24T08:01:32;0.95;;;0.77;;
29168;SDS011;16219;42.864;23.360;2023-04-24T08:04:00;0.85;;;0.85;;
29168;SDS011;16219;42.864;23.360;2023-04-24T08:06:27;1.50;;;1.40;;
29168;SDS011;16219;42.864;23.360;2023-04-24T08:08:57;0.85;;;0.85;;
29168;SDS011;16219;42.864;23.360;2023-04-24T08:11:25;0.73;;;0.73;;
29168;SDS011;16219;42.864;23.360;2023-04-24T08:13:52;1.23;;;0.98;;
29168;SDS011;16219;42.864;23.360;2023-04-24T08:16:19;1.70;;;1.30;;
29168;SDS011;16219;42.864;23.360;2023-04-24T08:18:48;0.60;;;0.60;;
29168;SDS011;16219;42.864;23.360;2023-04-24T08:21:15;1.05;;;0.98;;
29168;SDS011;16219;42.864;23.360;2023-04-24T08:23:44;2.35;;;1.20;;
29168;SDS011;16219;42.864;23.360;2023-04-24T08:26:11;2.50;;;1.40;;
29168;SDS011;16219;42.864;23.360;2023-04-24T08:28:39;1.00;;;1.00;;
29168;SDS011;16219;42.864;23.360;2023-04-24T08:31:06;0.85;;;0.85;;
29168;SDS011;16219;42.864;23.360;2023-04-24T08:33:33;1.45;;;1.35;;
29168;SDS011;16219;42.864;23.360;2023-04-24T08:36:03;2.88;;;1.10;;
29168;SDS011;16219;42.864;23.360;2023-04-24T08:38:31;1.65;;;1.33;;
29168;SDS011;16219;42.864;23.360;2023-04-24T08:40:59;1.08;;;1.05;;
29168;SDS011;16219;42.864;23.360;2023-04-24T08:43:27;7.13;;;1.83;;
29168;SDS011;16219;42.864;23.360;2023-04-24T08:45:55;2.00;;;1.50;;
29168;SDS011;16219;42.864;23.360;2023-04-24T08:48:24;1.30;;;1.23;;
29168;SDS011;16219;42.864;23.360;2023-04-24T08:50:52;4.30;;;2.00;;
29168;SDS011;16219;42.864;23.360;2023-04-24T08:53:21;2.83;;;1.33;;
29168;SDS011;16219;42.864;23.360;2023-04-24T08:55:48;1.05;;;1.00;;
29168;SDS011;16219;42.864;23.360;2023-04-24T08:58:17;0.68;;;0.68;;
29168;SDS011;16219;42.864;23.360;2023-04-24T09:00:44;0.93;;;0.93;;
29168;SDS011;16219;42.864;23.360;2023-04-24T09:03:13;1.27;;;1.17;;
29168;SDS011;16219;42.864;23.360;2023-04-24T09:05:42;0.45;;;0.45;;
29168;SDS011;16219;42.864;23.360;2023-04-24T09:08:11;1.02;;;1.02;;
29168;SDS011;16219;42.864;23.360;2023-04-24T09:10:41;3.67;;;1.83;;
29168;SDS011;16219;42.864;23.360;2023-04-24T09:13:08;0.73;;;0.73;;
29168;SDS011;16219;42.864;23.360;2023-04-24T09:15:36;1.67;;;1.42;;
29168;SDS011;16219;42.864;23.360;2023-04-24T09:18:05;4.85;;;1.30;;
29168;SDS011;16219;42.864;23.360;2023-04-24T09:20:33;0.88;;;0.85;;
29168;SDS011;16219;42.864;23.360;2023-04-24T09:23:01;1.38;;;1.30;;
29168;SDS011;16219;42.864;23.360;2023-04-24T09:25:30;2.20;;;1.42;;
29168;SDS011;16219;42.864;23.360;2023-04-24T09:28:01;1.00;;;0.95;;
29168;SDS011;16219;42.864;23.360;2023-04-24T09:30:29;3.70;;;1.38;;
29168;SDS011;16219;42.864;23.360;2023-04-24T09:33:09;0.57;;;0.57;;
29168;SDS011;16219;42.864;23.360;2023-04-24T09:35:40;2.97;;;2.00;;
29168;SDS011;16219;42.864;23.360;2023-04-24T09:38:08;3.65;;;2.70;;
29168;SDS011;16219;42.864;23.360;2023-04-24T09:40:35;0.50;;;0.50;;
29168;SDS011;16219;42.864;23.360;2023-04-24T09:43:04;0.70;;;0.70;;
29168;SDS011;16219;42.864;23.360;2023-04-24T09:45:37;0.95;;;0.95;;
29168;SDS011;16219;42.864;23.360;2023-04-24T09:48:06;1.55;;;1.20;;
29168;SDS011;16219;42.864;23.360;2023-04-24T09:50:36;0.68;;;0.65;;
29168;SDS011;16219;42.864;23.360;2023-04-24T09:53:04;0.68;;;0.68;;
29168;SDS011;16219;42.864;23.360;2023-04-24T09:55:35;2.50;;;0.88;;
29168;SDS011;16219;42.864;23.360;2023-04-24T09:58:07;0.73;;;0.70;;
29168;SDS011;16219;42.864;23.360;2023-04-24T10:00:36;0.77;;;0.77;;
29168;SDS011;16219;42.864;23.360;2023-04-24T10:03:03;0.45;;;0.45;;
29168;SDS011;16219;42.864;23.360;2023-04-24T10:05:31;2.38;;;1.38;;
29168;SDS011;16219;42.864;23.360;2023-04-24T10:08:00;8.50;;;1.40;;
29168;SDS011;16219;42.864;23.360;2023-04-24T10:10:30;0.82;;;0.82;;
29168;SDS011;16219;42.864;23.360;2023-04-24T10:12:58;1.80;;;1.35;;
29168;SDS011;16219;42.864;23.360;2023-04-24T10:15:27;0.55;;;0.55;;
29168;SDS011;16219;42.864;23.360;2023-04-24T10:17:54;0.93;;;0.82;;
29168;SDS011;16219;42.864;23.360;2023-04-24T10:20:25;0.70;;;0.70;;
29168;SDS011;16219;42.864;23.360;2023-04-24T10:22:56;1.58;;;1.35;;
29168;SDS011;16219;42.864;23.360;2023-04-24T10:25:25;0.43;;;0.43;;
29168;SDS011;16219;42.864;23.360;2023-04-24T10:27:57;1.10;;;1.02;;
29168;SDS011;16219;42.864;23.360;2023-04-24T10:30:42;0.52;;;0.52;;
29168;SDS011;16219;42.864;23.360;2023-04-24T10:33:22;0.90;;;0.90;;
29168;SDS011;16219;42.864;23.360;2023-04-24T10:36:00;0.57;;;0.55;;
29168;SDS011;16219;42.864;23.360;2023-04-24T10:38:28;3.47;;;1.17;;
29168;SDS011;16219;42.864;23.360;2023-04-24T10:40:57;2.05;;;1.08;;
29168;SDS011;16219;42.864;23.360;2023-04-24T10:43:33;0.82;;;0.82;;
29168;SDS011;16219;42.864;23.360;2023-04-24T10:46:03;0.55;;;0.55;;
29168;SDS011;16219;42.864;23.360;2023-04-24T10:48:32;0.73;;;0.73;;
29168;SDS011;16219;42.864;23.360;2023-04-24T10:51:00;0.57;;;0.57;;
29168;SDS011;16219;42.864;23.360;2023-04-24T10:53:29;1.50;;;1.25;;
29168;SDS011;16219;42.864;23.360;2023-04-24T10:55:57;2.72;;;1.48;;
29168;SDS011;16219;42.864;23.360;2023-04-24T10:58:35;0.52;;;0.52;;
29168;SDS011;16219;42.864;23.360;2023-04-24T11:01:07;1.85;;;1.48;;
29168;SDS011;16219;42.864;23.360;2023-04-24T11:03:34;2.17;;;1.75;;
29168;SDS011;16219;42.864;23.360;2023-04-24T11:06:03;0.80;;;0.80;;
29168;SDS011;16219;42.864;23.360;2023-04-24T11:08:32;0.82;;;0.82;;
29168;SDS011;16219;42.864;23.360;2023-04-24T11:11:08;0.98;;;0.77;;
29168;SDS011;16219;42.864;23.360;2023-04-24T11:16:38;1.42;;;0.95;;
29168;SDS011;16219;42.864;23.360;2023-04-24T11:19:10;0.85;;;0.82;;
29168;SDS011;16219;42.864;23.360;2023-04-24T11:21:46;0.40;;;0.40;;
29168;SDS011;16219;42.864;23.360;2023-04-24T11:27:15;0.90;;;0.70;;
29168;SDS011;16219;42.864;23.360;2023-04-24T11:29:46;0.70;;;0.70;;
29168;SDS011;16219;42.864;23.360;2023-04-24T11:32:30;0.70;;;0.70;;
29168;SDS011;16219;42.864;23.360;2023-04-24T11:35:01;2.40;;;1.58;;
29168;SDS011;16219;42.864;23.360;2023-04-24T11:37:33;0.70;;;0.70;;
29168;SDS011;16219;42.864;23.360;2023-04-24T11:40:03;1.00;;;0.88;;
29168;SDS011;16219;42.864;23.360;2023-04-24T11:42:34;3.70;;;0.88;;
29168;SDS011;16219;42.864;23.360;2023-04-24T11:45:06;3.75;;;1.42;;
29168;SDS011;16219;42.864;23.360;2023-04-24T11:47:36;1.65;;;1.08;;
29168;SDS011;16219;42.864;23.360;2023-04-24T11:50:04;1.52;;;1.27;;
29168;SDS011;16219;42.864;23.360;2023-04-24T11:52:33;0.80;;;0.57;;
29168;SDS011;16219;42.864;23.360;2023-04-24T11:55:06;0.73;;;0.73;;
29168;SDS011;16219;42.864;23.360;2023-04-24T11:57:34;0.63;;;0.63;;
29168;SDS011;16219;42.864;23.360;2023-04-24T12:00:03;0.52;;;0.52;;
29168;SDS011;16219;42.864;23.360;2023-04-24T12:02:38;1.33;;;0.95;;
29168;SDS011;16219;42.864;23.360;2023-04-24T12:05:06;0.47;;;0.47;;
29168;SDS011;16219;42.864;23.360;2023-04-24T12:07:40;4.93;;;1.23;;
29168;SDS011;16219;42.864;23.360;2023-04-24T12:10:08;1.27;;;0.95;;
29168;SDS011;16219;42.864;23.360;2023-04-24T12:12:36;0.98;;;0.82;;
29168;SDS011;16219;42.864;23.360;2023-04-24T12:15:06;5.60;;;1.00;;
29168;SDS011;16219;42.864;23.360;2023-04-24T12:17:35;1.55;;;0.98;;
29168;SDS011;16219;42.864;23.360;2023-04-24T12:20:04;1.45;;;0.73;;
29168;SDS011;16219;42.864;23.360;2023-04-24T12:22:43;1.55;;;0.63;;
29168;SDS011;16219;42.864;23.360;2023-04-24T12:25:12;0.35;;;0.35;;
29168;SDS011;16219;42.864;23.360;2023-04-24T12:27:39;0.80;;;0.75;;
29168;SDS011;16219;42.864;23.360;2023-04-24T12:30:10;1.92;;;1.23;;
29168;SDS011;16219;42.864;23.360;2023-04-24T12:32:40;5.30;;;0.95;;
29168;SDS011;16219;42.864;23.360;2023-04-24T12:35:10;1.35;;;1.15;;
29168;SDS011;16219;42.864;23.360;2023-04-24T12:37:38;0.50;;;0.50;;
29168;SDS011;16219;42.864;23.360;2023-04-24T12:40:07;1.10;;;1.10;;
29168;SDS011;16219;42.864;23.360;2023-04-24T12:42:41;0.60;;;0.60;;
29168;SDS011;16219;42.864;23.360;2023-04-24T12:45:09;1.00;;;0.85;;
29168;SDS011;16219;42.864;23.360;2023-04-24T12:47:38;0.70;;;0.70;;
29168;SDS011;16219;42.864;23.360;2023-04-24T12:50:07;0.90;;;0.80;;
29168;SDS011;16219;42.864;23.360;2023-04-24T12:52:36;1.17;;;1.08;;
29168;SDS011;16219;42.864;23.360;2023-04-24T12:55:05;0.80;;;0.80;;
29168;SDS011;16219;42.864;23.360;2023-04-24T12:57:33;2.00;;;1.23;;
29168;SDS011;16219;42.864;23.360;2023-04-24T13:00:01;0.73;;;0.73;;
29168;SDS011;16219;42.864;23.360;2023-04-24T13:02:30;0.45;;;0.45;;
29168;SDS011;16219;42.864;23.360;2023-04-24T13:04:57;0.85;;;0.85;;
29168;SDS011;16219;42.864;23.360;2023-04-24T13:07:25;2.05;;;1.15;;
29168;SDS011;16219;42.864;23.360;2023-04-24T13:09:54;1.42;;;1.05;;
29168;SDS011;16219;42.864;23.360;2023-04-24T13:12:23;0.65;;;0.65;;
29168;SDS011;16219;42.864;23.360;2023-04-24T13:14:52;0.60;;;0.60;;
29168;SDS011;16219;42.864;23.360;2023-04-24T13:17:19;2.75;;;1.05;;
29168;SDS011;16219;42.864;23.360;2023-04-24T13:19:48;4.15;;;1.10;;
29168;SDS011;16219;42.864;23.360;2023-04-24T13:22:17;20.42;;;1.45;;
29168;SDS011;16219;42.864;23.360;2023-04-24T13:24:45;0.50;;;0.50;;
29168;SDS011;16219;42.864;23.360;2023-04-24T13:27:15;1.00;;;0.80;;
29168;SDS011;16219;42.864;23.360;2023-04-24T13:29:42;0.88;;;0.82;;
29168;SDS011;16219;42.864;23.360;2023-04-24T13:32:10;0.52;;;0.52;;
29168;SDS011;16219;42.864;23.360;2023-04-24T13:34:37;1.38;;;0.52;;
29168;SDS011;16219;42.864;23.360;2023-04-24T13:37:06;1.90;;;0.63;;
29168;SDS011;16219;42.864;23.360;2023-04-24T13:39:34;0.73;;;0.68;;
29168;SDS011;16219;42.864;23.360;2023-04-24T13:42:01;0.50;;;0.50;;
29168;SDS011;16219;42.864;23.360;2023-04-24T13:44:30;0.57;;;0.57;;
29168;SDS011;16219;42.864;23.360;2023-04-24T13:46:58;0.47;;;0.38;;
29168;SDS011;16219;42.864;23.360;2023-04-24T13:49:26;1.52;;;1.42;;
29168;SDS011;16219;42.864;23.360;2023-04-24T13:51:54;1.52;;;0.90;;
29168;SDS011;16219;42.864;23.360;2023-04-24T13:54:22;7.82;;;0.90;;
29168;SDS011;16219;42.864;23.360;2023-04-24T13:56:51;0.80;;;0.80;;
29168;SDS011;16219;42.864;23.360;2023-04-24T13:59:19;1.00;;;0.70;;
29168;SDS011;16219;42.864;23.360;2023-04-24T14:01:48;0.68;;;0.68;;
29168;SDS011;16219;42.864;23.360;2023-04-24T14:04:15;0.40;;;0.40;;
29168;SDS011;16219;42.864;23.360;2023-04-24T14:06:43;0.52;;;0.50;;
29168;SDS011;16219;42.864;23.360;2023-04-24T14:09:10;26.45;;;1.30;;
29168;SDS011;16219;42.864;23.360;2023-04-24T14:11:38;0.38;;;0.38;;
29168;SDS011;16219;42.864;23.360;2023-04-24T14:14:05;0.45;;;0.45;;
29168;SDS011;16219;42.864;23.360;2023-04-24T14:16:34;1.08;;;0.70;;
29168;SDS011;16219;42.864;23.360;2023-04-24T14:19:02;0.55;;;0.50;;
29168;SDS011;16219;42.864;23.360;2023-04-24T14:21:30;0.52;;;0.52;;
29168;SDS011;16219;42.864;23.360;2023-04-24T14:23:58;1.08;;;0.65;;
29168;SDS011;16219;42.864;23.360;2023-04-24T14:26:26;2.25;;;0.52;;
29168;SDS011;16219;42.864;23.360;2023-04-24T14:28:53;0.30;;;0.30;;
29168;SDS011;16219;42.864;23.360;2023-04-24T14:31:20;0.45;;;0.45;;
29168;SDS011;16219;42.864;23.360;2023-04-24T14:33:48;0.50;;;0.50;;
29168;SDS011;16219;42.864;23.360;2023-04-24T14:36:16;1.25;;;0.80;;
29168;SDS011;16219;42.864;23.360;2023-04-24T14:38:44;0.90;;;0.90;;
29168;SDS011;16219;42.864;23.360;2023-04-24T14:41:11;0.30;;;0.30;;
29168;SDS011;16219;42.864;23.360;2023-04-24T14:43:39;0.50;;;0.50;;
29168;SDS011;16219;42.864;23.360;2023-04-24T14:46:06;1.55;;;1.10;;
29168;SDS011;16219;42.864;23.360;2023-04-24T14:48:33;2.75;;;1.52;;